sensor_id;sensor_type;location;lat;lon;timestamp;temperature;humidity
26378;DHT22;14078;50.974;6.786;2023-04-25T00:01:50;7.30;99.90
26378;DHT22;14078;50.974;6.786;2023-04-25T00:04:17;7.40;99.90
26378;DHT22;14078;50.974;6.786;2023-04-25T00:06:44;7.30;97.70
26378;DHT22;14078;50.974;6.786;2023-04-25T00:09:11;7.30;99.90
26378;DHT22;14078;50.974;6.786;2023-04-25T00:11:37;7.20;99.90
26378;DHT22;14078;50.974;6.786;2023-04-25T00:14:05;7.10;99.90
26378;DHT22;14078;50.974;6.786;2023-04-25T00:16:32;7.10;99.90
26378;DHT22;14078;50.974;6.786;2023-04-25T00:19:00;7.00;99.90
26378;DHT22;14078;50.974;6.786;2023-04-25T00:21:27;7.00;99.90
26378;DHT22;14078;50.974;6.786;2023-04-25T00:23:54;7.00;99.90
26378;DHT22;14078;50.974;6.786;2023-04-25T00:26:21;7.10;99.90
26378;DHT22;14078;50.974;6.786;2023-04-25T00:28:47;7.10;99.90
26378;DHT22;14078;50.974;6.786;2023-04-25T00:31:15;7.10;99.90
26378;DHT22;14078;50.974;6.786;2023-04-25T00:33:42;7.20;99.90
26378;DHT22;14078;50.974;6.786;2023-04-25T00:36:09;7.20;98.70
26378;DHT22;14078;50.974;6.786;2023-04-25T00:38:35;7.10;98.10
26378;DHT22;14078;50.974;6.786;2023-04-25T00:41:04;7.00;99.90
26378;DHT22;14078;50.974;6.786;2023-04-25T00:43:31;7.00;99.90
26378;DHT22;14078;50.974;6.786;2023-04-25T00:45:59;6.90;99.70
26378;DHT22;14078;50.974;6.786;2023-04-25T00:48:27;6.90;97.90
26378;DHT22;14078;50.974;6.786;2023-04-25T00:50:54;6.90;95.80
26378;DHT22;14078;50.974;6.786;2023-04-25T00:53:21;6.90;82.00
26378;DHT22;14078;50.974;6.786;2023-04-25T00:55:48;6.80;86.40
26378;DHT22;14078;50.974;6.786;2023-04-25T00:58:16;6.80;93.40
26378;DHT22;14078;50.974;6.786;2023-04-25T01:00:42;6.70;98.60
26378;DHT22;14078;50.974;6.786;2023-04-25T01:03:09;6.60;99.90
26378;DHT22;14078;50.974;6.786;2023-04-25T01:05:37;6.60;99.90
26378;DHT22;14078;50.974;6.786;2023-04-25T01:08:04;6.50;99.90
26378;DHT22;14078;50.974;6.786;2023-04-25T01:10:30;6.50;99.90
26378;DHT22;14078;50.974;6.786;2023-04-25T01:12:57;6.40;99.90
26378;DHT22;14078;50.974;6.786;2023-04-25T01:15:23;6.30;99.90
26378;DHT22;14078;50.974;6.786;2023-04-25T01:17:50;6.30;99.90
26378;DHT22;14078;50.974;6.786;2023-04-25T01:20:18;6.30;99.90
26378;DHT22;14078;50.974;6.786;2023-04-25T01:22:48;6.30;99.90
26378;DHT22;14078;50.974;6.786;2023-04-25T01:25:15;6.30;99.90
26378;DHT22;14078;50.974;6.786;2023-04-25T01:27:42;6.30;99.90
26378;DHT22;14078;50.974;6.786;2023-04-25T01:30:08;6.30;99.90
26378;DHT22;14078;50.974;6.786;2023-04-25T01:32:35;6.30;99.90
26378;DHT22;14078;50.974;6.786;2023-04-25T01:35:04;6.30;99.90
26378;DHT22;14078;50.974;6.786;2023-04-25T01:37:34;6.30;99.90
26378;DHT22;14078;50.974;6.786;2023-04-25T01:40:02;6.30;99.90
26378;DHT22;14078;50.974;6.786;2023-04-25T01:42:31;6.30;99.90
26378;DHT22;14078;50.974;6.786;2023-04-25T01:44:57;6.30;99.90
26378;DHT22;14078;50.974;6.786;2023-04-25T01:47:24;6.30;99.90
26378;DHT22;14078;50.974;6.786;2023-04-25T01:49:50;6.40;99.90
26378;DHT22;14078;50.974;6.786;2023-04-25T01:52:17;6.40;99.90
26378;DHT22;14078;50.974;6.786;2023-04-25T01:54:44;6.40;99.90
26378;DHT22;14078;50.974;6.786;2023-04-25T01:57:11;6.30;99.90
26378;DHT22;14078;50.974;6.786;2023-04-25T01:59:38;6.30;99.90
26378;DHT22;14078;50.974;6.786;2023-04-25T02:02:05;6.30;99.90
26378;DHT22;14078;50.974;6.786;2023-04-25T02:04:32;6.20;99.90
26378;DHT22;14078;50.974;6.786;2023-04-25T02:06:58;6.20;99.90
26378;DHT22;14078;50.974;6.786;2023-04-25T02:09:25;6.30;99.90
26378;DHT22;14078;50.974;6.786;2023-04-25T02:11:52;6.30;99.90
26378;DHT22;14078;50.974;6.786;2023-04-25T02:14:20;6.30;99.90
26378;DHT22;14078;50.974;6.786;2023-04-25T02:16:46;6.30;99.90
26378;DHT22;14078;50.974;6.786;2023-04-25T02:19:13;6.40;99.90
26378;DHT22;14078;50.974;6.786;2023-04-25T02:21:40;6.40;99.90
26378;DHT22;14078;50.974;6.786;2023-04-25T02:24:07;6.40;99.90
26378;DHT22;14078;50.974;6.786;2023-04-25T02:26:33;6.50;99.90
26378;DHT22;14078;50.974;6.786;2023-04-25T02:29:00;6.40;99.90
26378;DHT22;14078;50.974;6.786;2023-04-25T02:31:28;6.50;99.90
26378;DHT22;14078;50.974;6.786;2023-04-25T02:33:54;6.50;99.70
26378;DHT22;14078;50.974;6.786;2023-04-25T02:36:21;6.50;99.00
26378;DHT22;14078;50.974;6.786;2023-04-25T02:38:47;6.50;99.90
26378;DHT22;14078;50.974;6.786;2023-04-25T02:41:14;6.50;99.90
26378;DHT22;14078;50.974;6.786;2023-04-25T02:43:41;6.40;99.90
26378;DHT22;14078;50.974;6.786;2023-04-25T02:46:07;6.40;99.90
26378;DHT22;14078;50.974;6.786;2023-04-25T02:48:35;6.40;99.90
26378;DHT22;14078;50.974;6.786;2023-04-25T02:51:02;6.40;99.90
26378;DHT22;14078;50.974;6.786;2023-04-25T02:53:28;6.40;99.90
26378;DHT22;14078;50.974;6.786;2023-04-25T02:55:55;6.40;99.90
26378;DHT22;14078;50.974;6.786;2023-04-25T02:58:23;6.40;99.90
26378;DHT22;14078;50.974;6.786;2023-04-25T03:00:50;6.40;99.90
26378;DHT22;14078;50.974;6.786;2023-04-25T03:03:16;6.30;99.90
26378;DHT22;14078;50.974;6.786;2023-04-25T03:05:48;6.30;99.90
26378;DHT22;14078;50.974;6.786;2023-04-25T03:08:15;6.30;99.90
26378;DHT22;14078;50.974;6.786;2023-04-25T03:10:42;6.30;99.90
26378;DHT22;14078;50.974;6.786;2023-04-25T03:13:08;6.40;99.90
26378;DHT22;14078;50.974;6.786;2023-04-25T03:15:35;6.40;99.90
26378;DHT22;14078;50.974;6.786;2023-04-25T03:18:02;6.40;99.90
26378;DHT22;14078;50.974;6.786;2023-04-25T03:20:29;6.40;99.90
26378;DHT22;14078;50.974;6.786;2023-04-25T03:22:57;6.40;99.90
26378;DHT22;14078;50.974;6.786;2023-04-25T03:25:23;6.40;99.90
26378;DHT22;14078;50.974;6.786;2023-04-25T03:27:50;6.40;99.90
26378;DHT22;14078;50.974;6.786;2023-04-25T03:30:17;6.30;99.90
26378;DHT22;14078;50.974;6.786;2023-04-25T03:32:43;6.40;99.90
26378;DHT22;14078;50.974;6.786;2023-04-25T03:35:10;6.40;99.90
26378;DHT22;14078;50.974;6.786;2023-04-25T03:37:36;6.40;99.90
26378;DHT22;14078;50.974;6.786;2023-04-25T03:40:05;6.40;99.90
26378;DHT22;14078;50.974;6.786;2023-04-25T03:42:32;6.40;99.90
26378;DHT22;14078;50.974;6.786;2023-04-25T03:44:58;6.30;99.90
26378;DHT22;14078;50.974;6.786;2023-04-25T03:47:25;6.40;99.90
26378;DHT22;14078;50.974;6.786;2023-04-25T03:49:52;6.40;99.90
26378;DHT22;14078;50.974;6.786;2023-04-25T03:52:18;6.40;99.90
26378;DHT22;14078;50.974;6.786;2023-04-25T03:54:45;6.40;99.90
26378;DHT22;14078;50.974;6.786;2023-04-25T03:57:12;6.40;99.90
26378;DHT22;14078;50.974;6.786;2023-04-25T03:59:39;6.40;99.90
26378;DHT22;14078;50.974;6.786;2023-04-25T04:02:05;6.40;99.90
26378;DHT22;14078;50.974;6.786;2023-04-25T04:04:32;6.40;99.90
26378;DHT22;14078;50.974;6.786;2023-04-25T04:06:58;6.40;99.90
26378;DHT22;14078;50.974;6.786;2023-04-25T04:09:25;6.40;99.90
26378;DHT22;14078;50.974;6.786;2023-04-25T04:11:52;6.40;99.90
26378;DHT22;14078;50.974;6.786;2023-04-25T04:14:20;6.40;99.90
26378;DHT22;14078;50.974;6.786;2023-04-25T04:16:47;6.40;99.90
26378;DHT22;14078;50.974;6.786;2023-04-25T04:19:15;6.40;99.90
26378;DHT22;14078;50.974;6.786;2023-04-25T04:21:42;6.30;99.90
26378;DHT22;14078;50.974;6.786;2023-04-25T04:24:08;6.20;99.90
26378;DHT22;14078;50.974;6.786;2023-04-25T04:26:35;6.20;99.90
26378;DHT22;14078;50.974;6.786;2023-04-25T04:29:02;6.30;99.90
26378;DHT22;14078;50.974;6.786;2023-04-25T04:31:30;6.30;99.90
26378;DHT22;14078;50.974;6.786;2023-04-25T04:33:57;6.30;99.90
26378;DHT22;14078;50.974;6.786;2023-04-25T04:36:24;6.30;99.90
26378;DHT22;14078;50.974;6.786;2023-04-25T04:38:51;6.30;99.90
26378;DHT22;14078;50.974;6.786;2023-04-25T04:41:19;6.30;99.90
26378;DHT22;14078;50.974;6.786;2023-04-25T04:43:45;6.30;99.90
26378;DHT22;14078;50.974;6.786;2023-04-25T04:46:12;6.30;99.90
26378;DHT22;14078;50.974;6.786;2023-04-25T04:48:41;6.30;99.90
26378;DHT22;14078;50.974;6.786;2023-04-25T04:51:07;6.30;99.90
26378;DHT22;14078;50.974;6.786;2023-04-25T04:53:34;6.30;99.90
26378;DHT22;14078;50.974;6.786;2023-04-25T04:56:00;6.30;99.90
26378;DHT22;14078;50.974;6.786;2023-04-25T04:58:27;6.40;99.90
26378;DHT22;14078;50.974;6.786;2023-04-25T05:00:55;6.40;99.90
26378;DHT22;14078;50.974;6.786;2023-04-25T05:03:22;6.40;99.90
26378;DHT22;14078;50.974;6.786;2023-04-25T05:05:49;6.50;99.90
26378;DHT22;14078;50.974;6.786;2023-04-25T05:08:16;6.50;99.90
26378;DHT22;14078;50.974;6.786;2023-04-25T05:10:42;6.50;99.90
26378;DHT22;14078;50.974;6.786;2023-04-25T05:13:09;6.50;99.90
26378;DHT22;14078;50.974;6.786;2023-04-25T05:15:36;6.50;99.90
26378;DHT22;14078;50.974;6.786;2023-04-25T05:18:02;6.50;99.90
26378;DHT22;14078;50.974;6.786;2023-04-25T05:20:29;6.50;99.90
26378;DHT22;14078;50.974;6.786;2023-04-25T05:22:57;6.60;99.90
26378;DHT22;14078;50.974;6.786;2023-04-25T05:25:23;6.60;99.90
26378;DHT22;14078;50.974;6.786;2023-04-25T05:27:50;6.70;99.90
26378;DHT22;14078;50.974;6.786;2023-04-25T05:30:17;6.70;99.90
26378;DHT22;14078;50.974;6.786;2023-04-25T05:32:44;6.80;99.90
26378;DHT22;14078;50.974;6.786;2023-04-25T05:35:12;6.80;99.90
26378;DHT22;14078;50.974;6.786;2023-04-25T05:37:38;6.80;99.90
26378;DHT22;14078;50.974;6.786;2023-04-25T05:40:07;6.80;99.90
26378;DHT22;14078;50.974;6.786;2023-04-25T05:42:34;6.90;99.90
26378;DHT22;14078;50.974;6.786;2023-04-25T05:45:00;6.90;99.90
26378;DHT22;14078;50.974;6.786;2023-04-25T05:47:27;6.90;99.90
26378;DHT22;14078;50.974;6.786;2023-04-25T05:49:53;7.00;99.90
26378;DHT22;14078;50.974;6.786;2023-04-25T05:52:20;6.90;99.90
26378;DHT22;14078;50.974;6.786;2023-04-25T05:54:46;7.00;99.90
26378;DHT22;14078;50.974;6.786;2023-04-25T05:57:20;7.00;99.90
26378;DHT22;14078;50.974;6.786;2023-04-25T05:59:46;7.00;94.40
26378;DHT22;14078;50.974;6.786;2023-04-25T06:02:13;7.00;72.10
26378;DHT22;14078;50.974;6.786;2023-04-25T06:04:40;7.00;56.90
26378;DHT22;14078;50.974;6.786;2023-04-25T06:07:06;7.20;59.10
26378;DHT22;14078;50.974;6.786;2023-04-25T06:09:33;7.50;51.80
26378;DHT22;14078;50.974;6.786;2023-04-25T06:11:59;7.70;66.60
26378;DHT22;14078;50.974;6.786;2023-04-25T06:14:27;7.80;13.60
26378;DHT22;14078;50.974;6.786;2023-04-25T06:16:54;7.90;1.00
26378;DHT22;14078;50.974;6.786;2023-04-25T06:19:20;7.80;1.00
26378;DHT22;14078;50.974;6.786;2023-04-25T06:21:47;7.80;1.00
26378;DHT22;14078;50.974;6.786;2023-04-25T06:24:13;7.80;1.00
26378;DHT22;14078;50.974;6.786;2023-04-25T06:26:40;7.80;1.00
26378;DHT22;14078;50.974;6.786;2023-04-25T06:29:06;7.70;1.00
26378;DHT22;14078;50.974;6.786;2023-04-25T06:31:34;7.70;1.00
26378;DHT22;14078;50.974;6.786;2023-04-25T06:34:01;7.90;1.00
26378;DHT22;14078;50.974;6.786;2023-04-25T06:36:27;7.90;1.00
26378;DHT22;14078;50.974;6.786;2023-04-25T06:38:54;7.80;1.00
26378;DHT22;14078;50.974;6.786;2023-04-25T06:41:20;7.80;1.00
26378;DHT22;14078;50.974;6.786;2023-04-25T06:43:47;7.90;1.00
26378;DHT22;14078;50.974;6.786;2023-04-25T06:46:13;8.10;99.90
26378;DHT22;14078;50.974;6.786;2023-04-25T06:48:41;8.10;99.90
26378;DHT22;14078;50.974;6.786;2023-04-25T06:51:08;8.10;99.90
26378;DHT22;14078;50.974;6.786;2023-04-25T06:53:34;8.10;99.90
26378;DHT22;14078;50.974;6.786;2023-04-25T06:56:01;8.20;1.00
26378;DHT22;14078;50.974;6.786;2023-04-25T06:58:28;8.20;99.90
26378;DHT22;14078;50.974;6.786;2023-04-25T07:00:55;8.20;1.00
26378;DHT22;14078;50.974;6.786;2023-04-25T07:03:21;8.40;99.90
26378;DHT22;14078;50.974;6.786;2023-04-25T07:05:50;8.40;99.90
26378;DHT22;14078;50.974;6.786;2023-04-25T07:08:16;8.60;1.00
26378;DHT22;14078;50.974;6.786;2023-04-25T07:10:43;8.60;99.90
26378;DHT22;14078;50.974;6.786;2023-04-25T07:13:11;8.70;1.00
26378;DHT22;14078;50.974;6.786;2023-04-25T07:15:37;8.50;99.90
26378;DHT22;14078;50.974;6.786;2023-04-25T07:18:04;8.50;99.90
26378;DHT22;14078;50.974;6.786;2023-04-25T07:20:30;8.50;1.00
26378;DHT22;14078;50.974;6.786;2023-04-25T07:22:59;8.60;1.00
26378;DHT22;14078;50.974;6.786;2023-04-25T07:25:25;8.70;99.90
26378;DHT22;14078;50.974;6.786;2023-04-25T07:27:52;8.60;99.90
26378;DHT22;14078;50.974;6.786;2023-04-25T07:30:18;8.60;99.90
26378;DHT22;14078;50.974;6.786;2023-04-25T07:32:45;8.60;99.90
26378;DHT22;14078;50.974;6.786;2023-04-25T07:35:11;8.50;99.90
26378;DHT22;14078;50.974;6.786;2023-04-25T07:37:38;8.50;99.90
26378;DHT22;14078;50.974;6.786;2023-04-25T07:40:07;8.50;99.90
26378;DHT22;14078;50.974;6.786;2023-04-25T07:42:34;8.50;1.00
26378;DHT22;14078;50.974;6.786;2023-04-25T07:45:01;8.50;99.90
26378;DHT22;14078;50.974;6.786;2023-04-25T07:47:28;8.50;99.90
26378;DHT22;14078;50.974;6.786;2023-04-25T07:49:55;8.70;99.90
26378;DHT22;14078;50.974;6.786;2023-04-25T07:52:23;8.90;99.90
26378;DHT22;14078;50.974;6.786;2023-04-25T07:54:49;8.80;40.30
26378;DHT22;14078;50.974;6.786;2023-04-25T07:57:19;8.80;32.10
26378;DHT22;14078;50.974;6.786;2023-04-25T07:59:45;8.80;37.80
26378;DHT22;14078;50.974;6.786;2023-04-25T08:02:12;8.90;99.90
26378;DHT22;14078;50.974;6.786;2023-04-25T08:04:38;8.90;99.90
26378;DHT22;14078;50.974;6.786;2023-04-25T08:07:05;9.00;1.00
26378;DHT22;14078;50.974;6.786;2023-04-25T08:09:31;9.30;99.90
26378;DHT22;14078;50.974;6.786;2023-04-25T08:12:00;9.30;24.20
26378;DHT22;14078;50.974;6.786;2023-04-25T08:14:28;9.30;1.00
26378;DHT22;14078;50.974;6.786;2023-04-25T08:17:00;9.20;1.00
26378;DHT22;14078;50.974;6.786;2023-04-25T08:19:27;9.00;1.00
26378;DHT22;14078;50.974;6.786;2023-04-25T08:21:53;9.20;1.00
26378;DHT22;14078;50.974;6.786;2023-04-25T08:24:20;9.20;1.00
26378;DHT22;14078;50.974;6.786;2023-04-25T08:26:47;9.10;1.00
26378;DHT22;14078;50.974;6.786;2023-04-25T08:29:14;9.30;1.00
26378;DHT22;14078;50.974;6.786;2023-04-25T08:31:41;9.40;99.90
26378;DHT22;14078;50.974;6.786;2023-04-25T08:34:08;9.30;99.90
26378;DHT22;14078;50.974;6.786;2023-04-25T08:36:34;9.20;99.90
26378;DHT22;14078;50.974;6.786;2023-04-25T08:39:01;9.30;1.00
26378;DHT22;14078;50.974;6.786;2023-04-25T08:41:28;9.40;1.00
26378;DHT22;14078;50.974;6.786;2023-04-25T08:43:54;9.50;99.90
26378;DHT22;14078;50.974;6.786;2023-04-25T08:46:22;9.60;99.90
26378;DHT22;14078;50.974;6.786;2023-04-25T08:48:50;9.50;99.90
26378;DHT22;14078;50.974;6.786;2023-04-25T08:51:21;9.50;99.90
26378;DHT22;14078;50.974;6.786;2023-04-25T08:53:48;9.60;99.90
26378;DHT22;14078;50.974;6.786;2023-04-25T08:56:15;9.60;99.90
26378;DHT22;14078;50.974;6.786;2023-04-25T08:58:43;9.70;99.90
26378;DHT22;14078;50.974;6.786;2023-04-25T09:01:11;9.80;99.90
26378;DHT22;14078;50.974;6.786;2023-04-25T09:03:37;9.60;99.90
26378;DHT22;14078;50.974;6.786;2023-04-25T09:06:05;9.50;99.90
26378;DHT22;14078;50.974;6.786;2023-04-25T09:08:32;9.40;99.90
26378;DHT22;14078;50.974;6.786;2023-04-25T09:10:58;9.40;99.90
26378;DHT22;14078;50.974;6.786;2023-04-25T09:13:25;9.40;99.90
26378;DHT22;14078;50.974;6.786;2023-04-25T09:15:53;9.40;99.90
26378;DHT22;14078;50.974;6.786;2023-04-25T09:18:23;9.50;99.90
26378;DHT22;14078;50.974;6.786;2023-04-25T09:20:51;9.50;99.90
26378;DHT22;14078;50.974;6.786;2023-04-25T09:23:19;9.60;99.90
26378;DHT22;14078;50.974;6.786;2023-04-25T09:25:46;9.60;99.90
26378;DHT22;14078;50.974;6.786;2023-04-25T09:28:13;9.70;99.90
26378;DHT22;14078;50.974;6.786;2023-04-25T09:30:40;9.70;99.90
26378;DHT22;14078;50.974;6.786;2023-04-25T09:33:07;9.60;99.90
26378;DHT22;14078;50.974;6.786;2023-04-25T09:35:36;9.60;99.90
26378;DHT22;14078;50.974;6.786;2023-04-25T09:38:08;9.50;99.90
26378;DHT22;14078;50.974;6.786;2023-04-25T09:40:38;9.50;99.90
26378;DHT22;14078;50.974;6.786;2023-04-25T09:43:08;9.50;99.90
26378;DHT22;14078;50.974;6.786;2023-04-25T09:45:40;9.70;99.90
26378;DHT22;14078;50.974;6.786;2023-04-25T09:48:06;9.90;99.90
26378;DHT22;14078;50.974;6.786;2023-04-25T09:50:33;9.90;99.90
26378;DHT22;14078;50.974;6.786;2023-04-25T09:53:02;9.80;99.90
26378;DHT22;14078;50.974;6.786;2023-04-25T09:55:30;9.60;99.90
26378;DHT22;14078;50.974;6.786;2023-04-25T09:57:59;9.40;99.90
26378;DHT22;14078;50.974;6.786;2023-04-25T10:00:29;9.30;99.90
26378;DHT22;14078;50.974;6.786;2023-04-25T10:02:57;9.30;99.90
26378;DHT22;14078;50.974;6.786;2023-04-25T10:05:26;9.20;99.90
26378;DHT22;14078;50.974;6.786;2023-04-25T10:07:53;9.10;99.90
26378;DHT22;14078;50.974;6.786;2023-04-25T10:10:19;9.00;99.90
26378;DHT22;14078;50.974;6.786;2023-04-25T10:12:51;9.00;99.90
26378;DHT22;14078;50.974;6.786;2023-04-25T10:15:19;9.10;99.90
26378;DHT22;14078;50.974;6.786;2023-04-25T10:17:45;9.20;99.90
26378;DHT22;14078;50.974;6.786;2023-04-25T10:20:12;9.40;99.90
26378;DHT22;14078;50.974;6.786;2023-04-25T10:22:39;9.40;99.90
26378;DHT22;14078;50.974;6.786;2023-04-25T10:25:07;9.60;67.30
26378;DHT22;14078;50.974;6.786;2023-04-25T10:27:34;9.60;44.30
26378;DHT22;14078;50.974;6.786;2023-04-25T10:30:02;9.70;29.90
26378;DHT22;14078;50.974;6.786;2023-04-25T10:32:31;9.80;83.60
26378;DHT22;14078;50.974;6.786;2023-04-25T10:35:04;10.20;99.90
26378;DHT22;14078;50.974;6.786;2023-04-25T10:37:36;10.30;99.90
26378;DHT22;14078;50.974;6.786;2023-04-25T10:40:07;10.10;99.90
26378;DHT22;14078;50.974;6.786;2023-04-25T10:42:34;9.80;99.90
26378;DHT22;14078;50.974;6.786;2023-04-25T10:45:02;9.80;99.90
26378;DHT22;14078;50.974;6.786;2023-04-25T10:47:35;9.60;80.20
26378;DHT22;14078;50.974;6.786;2023-04-25T10:50:04;9.30;25.00
26378;DHT22;14078;50.974;6.786;2023-04-25T10:52:32;9.10;1.00
26378;DHT22;14078;50.974;6.786;2023-04-25T10:54:59;9.00;1.00
26378;DHT22;14078;50.974;6.786;2023-04-25T10:57:26;8.90;1.00
26378;DHT22;14078;50.974;6.786;2023-04-25T10:59:52;9.00;1.00
26378;DHT22;14078;50.974;6.786;2023-04-25T11:02:19;9.00;1.00
26378;DHT22;14078;50.974;6.786;2023-04-25T11:04:47;9.10;1.00
26378;DHT22;14078;50.974;6.786;2023-04-25T11:07:17;9.20;1.00
26378;DHT22;14078;50.974;6.786;2023-04-25T11:09:46;9.30;1.00
26378;DHT22;14078;50.974;6.786;2023-04-25T11:12:12;9.50;1.00
26378;DHT22;14078;50.974;6.786;2023-04-25T11:14:39;9.80;1.00
26378;DHT22;14078;50.974;6.786;2023-04-25T11:17:05;9.90;1.00
26378;DHT22;14078;50.974;6.786;2023-04-25T11:19:32;10.20;1.00
26378;DHT22;14078;50.974;6.786;2023-04-25T11:22:01;10.30;1.00
26378;DHT22;14078;50.974;6.786;2023-04-25T11:24:28;10.30;1.00
26378;DHT22;14078;50.974;6.786;2023-04-25T11:26:55;10.60;1.00
26378;DHT22;14078;50.974;6.786;2023-04-25T11:29:21;10.80;1.00
26378;DHT22;14078;50.974;6.786;2023-04-25T11:31:48;10.70;1.00
26378;DHT22;14078;50.974;6.786;2023-04-25T11:34:16;10.70;1.00
26378;DHT22;14078;50.974;6.786;2023-04-25T11:36:43;10.70;1.00
26378;DHT22;14078;50.974;6.786;2023-04-25T11:39:12;10.80;1.00
26378;DHT22;14078;50.974;6.786;2023-04-25T11:41:38;10.80;1.00
26378;DHT22;14078;50.974;6.786;2023-04-25T11:44:05;10.70;99.90
26378;DHT22;14078;50.974;6.786;2023-04-25T11:46:33;10.70;99.90
26378;DHT22;14078;50.974;6.786;2023-04-25T11:49:00;10.50;99.90
26378;DHT22;14078;50.974;6.786;2023-04-25T11:51:26;10.30;99.90
26378;DHT22;14078;50.974;6.786;2023-04-25T11:53:53;10.30;99.90
26378;DHT22;14078;50.974;6.786;2023-04-25T11:56:21;10.30;99.90
26378;DHT22;14078;50.974;6.786;2023-04-25T11:58:54;10.50;99.90
26378;DHT22;14078;50.974;6.786;2023-04-25T12:01:25;10.70;99.90
26378;DHT22;14078;50.974;6.786;2023-04-25T12:03:51;11.00;99.90
26378;DHT22;14078;50.974;6.786;2023-04-25T12:06:18;11.00;99.90
26378;DHT22;14078;50.974;6.786;2023-04-25T12:08:58;11.20;99.90
26378;DHT22;14078;50.974;6.786;2023-04-25T12:11:26;11.60;99.90
26378;DHT22;14078;50.974;6.786;2023-04-25T12:13:53;12.00;99.90
26378;DHT22;14078;50.974;6.786;2023-04-25T12:16:19;12.00;99.90
26378;DHT22;14078;50.974;6.786;2023-04-25T12:18:46;11.90;99.90
26378;DHT22;14078;50.974;6.786;2023-04-25T12:21:12;11.60;99.90
26378;DHT22;14078;50.974;6.786;2023-04-25T12:23:39;11.50;99.90
26378;DHT22;14078;50.974;6.786;2023-04-25T12:26:06;11.30;99.90
26378;DHT22;14078;50.974;6.786;2023-04-25T12:28:34;11.30;99.90
26378;DHT22;14078;50.974;6.786;2023-04-25T12:31:01;11.30;99.90
26378;DHT22;14078;50.974;6.786;2023-04-25T12:33:29;11.20;99.90
26378;DHT22;14078;50.974;6.786;2023-04-25T12:35:56;10.90;99.90
26378;DHT22;14078;50.974;6.786;2023-04-25T12:38:23;10.70;99.90
26378;DHT22;14078;50.974;6.786;2023-04-25T12:40:50;10.70;99.90
26378;DHT22;14078;50.974;6.786;2023-04-25T12:43:17;10.50;99.90
26378;DHT22;14078;50.974;6.786;2023-04-25T12:45:45;10.50;99.90
26378;DHT22;14078;50.974;6.786;2023-04-25T12:48:13;10.50;99.90
26378;DHT22;14078;50.974;6.786;2023-04-25T12:50:40;10.50;99.90
26378;DHT22;14078;50.974;6.786;2023-04-25T12:53:06;10.60;99.90
26378;DHT22;14078;50.974;6.786;2023-04-25T12:55:33;10.50;99.90
26378;DHT22;14078;50.974;6.786;2023-04-25T12:58:00;10.40;99.90
26378;DHT22;14078;50.974;6.786;2023-04-25T13:00:26;10.40;99.90
26378;DHT22;14078;50.974;6.786;2023-04-25T13:02:54;10.40;99.90
26378;DHT22;14078;50.974;6.786;2023-04-25T13:05:21;10.50;99.90
26378;DHT22;14078;50.974;6.786;2023-04-25T13:07:47;10.70;99.90
26378;DHT22;14078;50.974;6.786;2023-04-25T13:10:14;10.70;99.90
26378;DHT22;14078;50.974;6.786;2023-04-25T13:12:40;10.70;99.90
26378;DHT22;14078;50.974;6.786;2023-04-25T13:15:07;10.70;99.90
26378;DHT22;14078;50.974;6.786;2023-04-25T13:17:36;10.60;99.90
26378;DHT22;14078;50.974;6.786;2023-04-25T13:20:05;10.50;99.90
26378;DHT22;14078;50.974;6.786;2023-04-25T13:22:33;10.80;99.90
26378;DHT22;14078;50.974;6.786;2023-04-25T13:25:02;11.00;99.90
26378;DHT22;14078;50.974;6.786;2023-04-25T13:27:28;11.20;99.90
26378;DHT22;14078;50.974;6.786;2023-04-25T13:29:57;11.60;99.90
26378;DHT22;14078;50.974;6.786;2023-04-25T13:32:24;11.90;99.90
26378;DHT22;14078;50.974;6.786;2023-04-25T13:34:50;12.00;99.90
26378;DHT22;14078;50.974;6.786;2023-04-25T13:37:18;11.50;99.90
26378;DHT22;14078;50.974;6.786;2023-04-25T13:39:45;11.40;99.90
26378;DHT22;14078;50.974;6.786;2023-04-25T13:42:11;11.00;99.90
26378;DHT22;14078;50.974;6.786;2023-04-25T13:44:38;10.90;99.90
26378;DHT22;14078;50.974;6.786;2023-04-25T13:47:04;11.00;99.90
26378;DHT22;14078;50.974;6.786;2023-04-25T13:49:31;11.30;99.90
26378;DHT22;14078;50.974;6.786;2023-04-25T13:51:58;11.50;99.90
26378;DHT22;14078;50.974;6.786;2023-04-25T13:54:26;11.70;99.90
26378;DHT22;14078;50.974;6.786;2023-04-25T13:56:52;12.00;99.90
26378;DHT22;14078;50.974;6.786;2023-04-25T13:59:23;12.00;99.90
26378;DHT22;14078;50.974;6.786;2023-04-25T14:01:50;11.70;99.90
26378;DHT22;14078;50.974;6.786;2023-04-25T14:04:17;11.50;99.90
26378;DHT22;14078;50.974;6.786;2023-04-25T14:06:43;11.30;99.90
26378;DHT22;14078;50.974;6.786;2023-04-25T14:09:10;11.10;99.90
26378;DHT22;14078;50.974;6.786;2023-04-25T14:11:39;10.90;99.90
26378;DHT22;14078;50.974;6.786;2023-04-25T14:14:05;10.80;99.90
26378;DHT22;14078;50.974;6.786;2023-04-25T14:16:33;10.70;99.90
26378;DHT22;14078;50.974;6.786;2023-04-25T14:19:00;10.90;99.90
26378;DHT22;14078;50.974;6.786;2023-04-25T14:21:26;11.10;99.90
26378;DHT22;14078;50.974;6.786;2023-04-25T14:23:53;11.10;99.90
26378;DHT22;14078;50.974;6.786;2023-04-25T14:26:20;11.00;99.90
26378;DHT22;14078;50.974;6.786;2023-04-25T14:28:47;10.70;99.90
26378;DHT22;14078;50.974;6.786;2023-04-25T14:31:14;10.60;99.90
26378;DHT22;14078;50.974;6.786;2023-04-25T14:33:41;10.50;99.90
26378;DHT22;14078;50.974;6.786;2023-04-25T14:36:08;10.50;99.90
26378;DHT22;14078;50.974;6.786;2023-04-25T14:38:35;10.40;99.90
26378;DHT22;14078;50.974;6.786;2023-04-25T14:41:02;10.40;99.90
26378;DHT22;14078;50.974;6.786;2023-04-25T14:43:28;10.50;99.90
26378;DHT22;14078;50.974;6.786;2023-04-25T14:45:56;10.70;99.90
26378;DHT22;14078;50.974;6.786;2023-04-25T14:48:22;10.90;99.90
26378;DHT22;14078;50.974;6.786;2023-04-25T14:50:49;11.30;99.90
26378;DHT22;14078;50.974;6.786;2023-04-25T14:53:16;11.50;99.90
26378;DHT22;14078;50.974;6.786;2023-04-25T14:55:42;11.80;99.90
26378;DHT22;14078;50.974;6.786;2023-04-25T14:58:08;12.30;1.00
26378;DHT22;14078;50.974;6.786;2023-04-25T15:00:35;12.50;1.00
26378;DHT22;14078;50.974;6.786;2023-04-25T15:03:03;13.00;1.00
26378;DHT22;14078;50.974;6.786;2023-04-25T15:05:30;13.20;1.00
26378;DHT22;14078;50.974;6.786;2023-04-25T15:07:57;13.60;1.00
26378;DHT22;14078;50.974;6.786;2023-04-25T15:10:23;13.60;1.00
26378;DHT22;14078;50.974;6.786;2023-04-25T16:19:38;11.00;70.80
26378;DHT22;14078;50.974;6.786;2023-04-25T16:24:33;10.90;1.00
26378;DHT22;14078;50.974;6.786;2023-04-25T16:27:00;10.90;1.00
26378;DHT22;14078;50.974;6.786;2023-04-25T16:29:28;10.80;1.00
26378;DHT22;14078;50.974;6.786;2023-04-25T16:31:54;10.70;1.00
26378;DHT22;14078;50.974;6.786;2023-04-25T16:34:21;10.60;1.00
26378;DHT22;14078;50.974;6.786;2023-04-25T16:36:49;10.70;1.00
26378;DHT22;14078;50.974;6.786;2023-04-25T16:39:16;10.70;1.00
26378;DHT22;14078;50.974;6.786;2023-04-25T16:41:43;10.80;1.00
26378;DHT22;14078;50.974;6.786;2023-04-25T16:44:10;10.90;1.00
26378;DHT22;14078;50.974;6.786;2023-04-25T16:46:37;10.90;1.00
26378;DHT22;14078;50.974;6.786;2023-04-25T16:49:03;10.70;1.00
26378;DHT22;14078;50.974;6.786;2023-04-25T16:51:30;10.60;1.00
26378;DHT22;14078;50.974;6.786;2023-04-25T16:53:58;10.50;1.00